Darstellungsparameter: Aktuell verwendete Einstellungen:
Skalierung der Graphiken ... ?
xyx+y,   Skalierungsfaktor:      Skalierung: Modus: x, Faktor: 1
Darstellungszeitraum ... ?
Vom - - bis: - -   Zeitraum: 22.07.2021 - 22.07.2021
Min/Max/Avg-Anzeige ... ?
Zeige MMA aktuell
Zeige MMA Monat
Zeige MMA alles
Zeige --A aktuell
Zeige --A Monat
Zeige --A alles
Keine MMA-Anzeige
MMA:
Keine MMA-Graphiken
MMA-Basis: 22.07.2021 - 22.07.2021
Quicknavigation für Darstellung... ?
Tage:      1T, 2T, 3T, 5T -1T -2T -3T -5T +1T +2T +3T +5T
Wochen: 1W, 2W, 3W -1W -2W -3W +1W +2W +3W
Monate: 1M, 3M, 6M -1M -3M -6M +1M +3M +6M
Jahre:    1J, 3J, 5J, 10J -1J -3J -5J -10J +1J +3J +5J +10J
Nutze für die Darstellung ... ?
Originaldaten oder Mittelwerte auf ...
Stundenbasis Tagesbasis Wochenbasis
Monatsbasis Jahresbasis      Datenbasis: Original-Daten
Darstellen als:
Statistik (Auto) Statistik J:M      Darstellung:
Zur Graphik,    zurück zur Übersicht aller Sensoren.
 
Tabellarische Datenbersicht: ?
 
Sensor: Nr:Datum:Temp:Feuchte:Taupunkt:
Aussen-T/F 1 22-07-2021 00:00:00 16.3 C 85 % 13.77 C
2 22-07-2021 00:05:00 16.2 C 85 % 13.68 C
3 22-07-2021 00:10:00 16.1 C 86 % 13.76 C
4 22-07-2021 00:15:00 15.9 C 86 % 13.56 C
5 22-07-2021 00:20:00 15.8 C 87 % 13.64 C
6 22-07-2021 00:25:00 15.8 C 87 % 13.64 C
7 22-07-2021 00:30:00 15.7 C 87 % 13.54 C
8 22-07-2021 00:35:00 15.6 C 88 % 13.62 C
9 22-07-2021 00:40:00 15.4 C 88 % 13.42 C
10 22-07-2021 00:45:00 15.3 C 88 % 13.33 C
11 22-07-2021 00:50:00 15.2 C 88 % 13.23 C
12 22-07-2021 00:55:00 15.1 C 88 % 13.13 C
13 22-07-2021 01:00:00 15 C 89 % 13.2 C
14 22-07-2021 01:05:00 14.9 C 89 % 13.1 C
15 22-07-2021 01:10:00 14.8 C 89 % 13.01 C
16 22-07-2021 01:15:00 14.7 C 90 % 13.08 C
17 22-07-2021 01:20:00 14.7 C 90 % 13.08 C
18 22-07-2021 01:25:00 14.6 C 90 % 12.98 C
19 22-07-2021 01:30:00 14.5 C 90 % 12.88 C
20 22-07-2021 01:35:00 14.4 C 90 % 12.78 C
21 22-07-2021 01:40:00 14.3 C 90 % 12.68 C
22 22-07-2021 01:45:00 14.3 C 90 % 12.68 C
23 22-07-2021 01:50:00 14.2 C 91 % 12.75 C
24 22-07-2021 01:55:00 14.2 C 91 % 12.75 C
25 22-07-2021 02:00:00 14.1 C 91 % 12.65 C
Sensor: Nr:Datum:Temp:Feuchte:Taupunkt:
Aussen-T/F 26 22-07-2021 02:05:00 14 C 91 % 12.56 C
27 22-07-2021 02:10:00 13.9 C 91 % 12.46 C
28 22-07-2021 02:15:00 13.9 C 92 % 12.62 C
29 22-07-2021 02:20:00 13.8 C 92 % 12.52 C
30 22-07-2021 02:25:00 13.8 C 92 % 12.52 C
31 22-07-2021 02:30:00 13.8 C 92 % 12.52 C
32 22-07-2021 02:35:00 13.7 C 92 % 12.42 C
33 22-07-2021 02:40:00 13.7 C 92 % 12.42 C
34 22-07-2021 02:45:00 13.7 C 92 % 12.42 C
35 22-07-2021 02:50:00 13.6 C 93 % 12.49 C
36 22-07-2021 02:55:00 13.6 C 93 % 12.49 C
37 22-07-2021 03:00:00 13.5 C 93 % 12.39 C
38 22-07-2021 03:05:00 13.4 C 93 % 12.29 C
39 22-07-2021 03:10:00 13.4 C 93 % 12.29 C
40 22-07-2021 03:15:00 13.3 C 93 % 12.19 C
41 22-07-2021 03:20:00 13.3 C 93 % 12.19 C
42 22-07-2021 03:25:00 13.3 C 93 % 12.19 C
43 22-07-2021 03:30:00 13.2 C 93 % 12.09 C
44 22-07-2021 03:35:00 13.2 C 93 % 12.09 C
45 22-07-2021 03:40:00 13.1 C 93 % 11.99 C
46 22-07-2021 03:45:00 13.1 C 93 % 11.99 C
47 22-07-2021 03:50:00 12.9 C 93 % 11.8 C
48 22-07-2021 03:55:00 12.9 C 93 % 11.8 C
49 22-07-2021 04:00:00 12.8 C 93 % 11.7 C
50 22-07-2021 04:05:00 12.8 C 93 % 11.7 C
Sensor: Nr:Datum:Temp:Feuchte:Taupunkt:
Aussen-T/F 51 22-07-2021 04:10:00 12.8 C 93 % 11.7 C
52 22-07-2021 04:15:00 12.7 C 94 % 11.76 C
53 22-07-2021 04:20:00 12.7 C 94 % 11.76 C
54 22-07-2021 04:25:00 12.7 C 94 % 11.76 C
55 22-07-2021 04:30:00 12.7 C 94 % 11.76 C
56 22-07-2021 04:35:00 12.7 C 94 % 11.76 C
57 22-07-2021 04:40:00 12.8 C 95 % 12.02 C
58 22-07-2021 04:45:00 12.8 C 95 % 12.02 C
59 22-07-2021 04:50:00 12.8 C 95 % 12.02 C
60 22-07-2021 04:55:00 12.9 C 95 % 12.12 C
61 22-07-2021 05:00:00 12.9 C 95 % 12.12 C
62 22-07-2021 05:05:00 12.9 C 95 % 12.12 C
63 22-07-2021 05:10:00 12.8 C 95 % 12.02 C
64 22-07-2021 05:15:00 12.8 C 95 % 12.02 C
65 22-07-2021 05:20:00 12.8 C 95 % 12.02 C
66 22-07-2021 05:25:00 12.8 C 95 % 12.02 C
67 22-07-2021 05:30:00 12.8 C 95 % 12.02 C
68 22-07-2021 05:35:00 12.8 C 95 % 12.02 C
69 22-07-2021 05:40:00 12.9 C 95 % 12.12 C
70 22-07-2021 05:45:00 12.9 C 95 % 12.12 C
71 22-07-2021 05:50:00 12.8 C 95 % 12.02 C
72 22-07-2021 05:55:00 12.8 C 95 % 12.02 C
73 22-07-2021 06:00:00 12.9 C 95 % 12.12 C
74 22-07-2021 06:05:00 12.9 C 95 % 12.12 C
75 22-07-2021 06:10:00 12.9 C 95 % 12.12 C
Sensor: Nr:Datum:Temp:Feuchte:Taupunkt:
Aussen-T/F 76 22-07-2021 06:15:00 12.9 C 95 % 12.12 C
77 22-07-2021 06:20:00 13 C 96 % 12.38 C
78 22-07-2021 06:25:00 13.1 C 95 % 12.32 C
79 22-07-2021 06:30:00 13.2 C 96 % 12.58 C
80 22-07-2021 06:35:00 13.2 C 96 % 12.58 C
81 22-07-2021 06:40:00 13.2 C 96 % 12.58 C
82 22-07-2021 06:45:00 13.3 C 96 % 12.68 C
83 22-07-2021 06:50:00 13.3 C 96 % 12.68 C
84 22-07-2021 06:55:00 13.4 C 96 % 12.78 C
85 22-07-2021 07:00:00 13.4 C 96 % 12.78 C
86 22-07-2021 07:05:00 13.5 C 96 % 12.87 C
87 22-07-2021 07:10:00 13.6 C 96 % 12.97 C
88 22-07-2021 07:15:00 13.6 C 95 % 12.81 C
89 22-07-2021 07:20:00 13.7 C 96 % 13.07 C
90 22-07-2021 07:25:00 13.7 C 96 % 13.07 C
91 22-07-2021 07:30:00 13.8 C 95 % 13.01 C
92 22-07-2021 07:35:00 13.9 C 95 % 13.11 C
93 22-07-2021 07:40:00 13.9 C 95 % 13.11 C
94 22-07-2021 07:45:00 14.1 C 95 % 13.31 C
95 22-07-2021 07:50:00 14.2 C 95 % 13.41 C
96 22-07-2021 07:55:00 14.3 C 95 % 13.51 C
97 22-07-2021 08:00:00 14.3 C 95 % 13.51 C
98 22-07-2021 08:05:00 14.4 C 94 % 13.45 C
99 22-07-2021 08:10:00 14.4 C 94 % 13.45 C
100 22-07-2021 08:15:00 14.5 C 94 % 13.55 C
Sensor: Nr:Datum:Temp:Feuchte:Taupunkt:
Aussen-T/F 101 22-07-2021 08:20:00 14.6 C 93 % 13.48 C
102 22-07-2021 08:25:00 14.7 C 93 % 13.58 C
103 22-07-2021 08:30:00 14.8 C 93 % 13.68 C
104 22-07-2021 08:35:00 14.9 C 93 % 13.78 C
105 22-07-2021 08:40:00 15.1 C 93 % 13.98 C
106 22-07-2021 08:45:00 15.2 C 92 % 13.91 C
107 22-07-2021 08:50:00 15.3 C 92 % 14.01 C
108 22-07-2021 08:55:00 15.4 C 92 % 14.11 C
109 22-07-2021 09:00:00 15.6 C 93 % 14.47 C
110 22-07-2021 09:05:00 15.7 C 93 % 14.57 C
111 22-07-2021 09:10:00 15.8 C 93 % 14.67 C
112 22-07-2021 09:15:00 15.9 C 93 % 14.77 C
113 22-07-2021 09:20:00 16.1 C 93 % 14.97 C
114 22-07-2021 09:25:00 16.2 C 93 % 15.07 C
115 22-07-2021 09:30:00 16.3 C 93 % 15.17 C
116 22-07-2021 09:35:00 16.4 C 93 % 15.27 C
117 22-07-2021 09:40:00 16.6 C 93 % 15.46 C
118 22-07-2021 09:45:00 16.7 C 93 % 15.56 C
119 22-07-2021 09:50:00 16.8 C 93 % 15.66 C
120 22-07-2021 09:55:00 16.9 C 92 % 15.59 C
121 22-07-2021 10:00:00 16.9 C 92 % 15.59 C
122 22-07-2021 10:05:00 17.1 C 92 % 15.79 C
123 22-07-2021 10:10:00 17.2 C 91 % 15.72 C
124 22-07-2021 10:15:00 17.3 C 89 % 15.47 C
125 22-07-2021 10:20:00 17.4 C 90 % 15.74 C
Sensor: Nr:Datum:Temp:Feuchte:Taupunkt:
Aussen-T/F 126 22-07-2021 10:25:00 17.6 C 90 % 15.94 C
127 22-07-2021 10:30:00 17.7 C 89 % 15.86 C
128 22-07-2021 10:35:00 17.9 C 89 % 16.06 C
129 22-07-2021 10:40:00 18.2 C 89 % 16.36 C
130 22-07-2021 10:45:00 18.3 C 86 % 15.92 C
131 22-07-2021 10:50:00 18.5 C 87 % 16.3 C
132 22-07-2021 10:55:00 18.7 C 85 % 16.13 C
133 22-07-2021 11:00:00 18.8 C 83 % 15.85 C
134 22-07-2021 11:05:00 19.1 C 83 % 16.15 C
135 22-07-2021 11:10:00 19.3 C 83 % 16.34 C
136 22-07-2021 11:15:00 19.6 C 85 % 17.01 C
137 22-07-2021 11:20:00 19.6 C 82 % 16.44 C
138 22-07-2021 11:25:00 19.7 C 79 % 15.96 C
139 22-07-2021 11:30:00 19.9 C 79 % 16.15 C
140 22-07-2021 11:35:00 20.2 C 79 % 16.44 C
141 22-07-2021 11:40:00 20.3 C 75 % 15.72 C
142 22-07-2021 11:45:00 20.6 C 76 % 16.22 C
143 22-07-2021 11:50:00 20.8 C 74 % 16 C
144 22-07-2021 11:55:00 20.9 C 73 % 15.88 C
145 22-07-2021 12:00:00 21 C 68 % 14.87 C
146 22-07-2021 12:05:00 21.2 C 72 % 15.95 C
147 22-07-2021 12:10:00 21.3 C 69 % 15.38 C
148 22-07-2021 12:15:00 21.5 C 65 % 14.65 C
149 22-07-2021 12:20:00 21.7 C 63 % 14.35 C
150 22-07-2021 12:25:00 21.8 C 63 % 14.45 C
Sensor: Nr:Datum:Temp:Feuchte:Taupunkt:
Aussen-T/F 151 22-07-2021 12:30:00 22 C 63 % 14.63 C
152 22-07-2021 12:35:00 22.2 C 66 % 15.55 C
153 22-07-2021 12:40:00 22.3 C 67 % 15.88 C
154 22-07-2021 12:45:00 22.3 C 62 % 14.67 C
155 22-07-2021 12:50:00 22.3 C 62 % 14.67 C
156 22-07-2021 12:55:00 22.5 C 63 % 15.11 C
157 22-07-2021 13:00:00 22.7 C 60 % 14.54 C
158 22-07-2021 13:05:00 22.9 C 59 % 14.47 C
159 22-07-2021 13:10:00 23.1 C 61 % 15.17 C
160 22-07-2021 13:15:00 23.2 C 59 % 14.75 C
161 22-07-2021 13:20:00 23.4 C 56 % 14.13 C
162 22-07-2021 13:25:00 23.7 C 54 % 13.84 C
163 22-07-2021 13:30:00 23.9 C 59 % 15.4 C
164 22-07-2021 13:35:00 24.1 C 54 % 14.21 C
165 22-07-2021 13:40:00 24.1 C 54 % 14.21 C
166 22-07-2021 13:45:00 24 C 55 % 14.41 C
167 22-07-2021 13:50:00 23.9 C 55 % 14.31 C
168 22-07-2021 13:55:00 23.9 C 55 % 14.31 C
169 22-07-2021 14:00:00 23.9 C 57 % 14.87 C
170 22-07-2021 14:05:00 24 C 60 % 15.76 C
171 22-07-2021 14:10:00 24.1 C 59 % 15.59 C
172 22-07-2021 14:15:00 24.1 C 56 % 14.78 C
173 22-07-2021 14:20:00 24.4 C 55 % 14.78 C
174 22-07-2021 14:25:00 24.6 C 53 % 14.39 C
175 22-07-2021 14:30:00 24.6 C 57 % 15.52 C
Sensor: Nr:Datum:Temp:Feuchte:Taupunkt:
Aussen-T/F 176 22-07-2021 14:35:00 24.5 C 53 % 14.3 C
177 22-07-2021 14:40:00 24.4 C 54 % 14.49 C
178 22-07-2021 14:45:00 24.4 C 59 % 15.87 C
179 22-07-2021 14:50:00 24.3 C 53 % 14.11 C
180 22-07-2021 14:55:00 24.4 C 60 % 16.13 C
181 22-07-2021 15:00:00 24.7 C 55 % 15.05 C
182 22-07-2021 15:05:00 24.7 C 58 % 15.88 C
183 22-07-2021 15:10:00 24.7 C 62 % 16.93 C
184 22-07-2021 15:15:00 24.7 C 61 % 16.67 C
185 22-07-2021 15:20:00 24.7 C 58 % 15.88 C
186 22-07-2021 15:25:00 24.7 C 55 % 15.05 C
187 22-07-2021 15:30:00 24.8 C 61 % 16.77 C
188 22-07-2021 15:35:00 24.9 C 64 % 17.62 C
189 22-07-2021 15:40:00 24.9 C 61 % 16.86 C
190 22-07-2021 15:45:00 24.8 C 54 % 14.86 C
191 22-07-2021 15:50:00 24.8 C 54 % 14.86 C
192 22-07-2021 15:55:00 24.8 C 55 % 15.15 C
193 22-07-2021 16:00:00 24.8 C 59 % 16.24 C
194 22-07-2021 16:05:00 24.8 C 55 % 15.15 C
195 22-07-2021 16:10:00 24.8 C 56 % 15.43 C
196 22-07-2021 16:15:00 24.9 C 63 % 17.37 C
197 22-07-2021 16:20:00 24.9 C 60 % 16.6 C
198 22-07-2021 16:25:00 24.9 C 56 % 15.52 C
199 22-07-2021 16:30:00 25 C 56 % 15.61 C
200 22-07-2021 16:35:00 25.4 C 56 % 15.99 C
Sensor: Nr:Datum:Temp:Feuchte:Taupunkt:
Aussen-T/F 201 22-07-2021 16:40:00 25.9 C 54 % 15.88 C
202 22-07-2021 16:45:00 26.2 C 51 % 15.27 C
203 22-07-2021 16:50:00 26.6 C 53 % 16.23 C
204 22-07-2021 16:55:00 26.9 C 50 % 15.6 C
205 22-07-2021 17:00:00 27.1 C 48 % 15.15 C
206 22-07-2021 17:05:00 26.8 C 49 % 15.19 C
207 22-07-2021 17:10:00 26.3 C 51 % 15.36 C
208 22-07-2021 17:15:00 25.9 C 52 % 15.29 C
209 22-07-2021 17:20:00 25.7 C 55 % 15.98 C
210 22-07-2021 17:25:00 25.6 C 61 % 17.52 C
211 22-07-2021 17:30:00 25.3 C 61 % 17.24 C
212 22-07-2021 17:35:00 25.2 C 65 % 18.15 C
213 22-07-2021 17:40:00 25.1 C 66 % 18.3 C
214 22-07-2021 17:45:00 25 C 69 % 18.91 C
215 22-07-2021 17:50:00 24.9 C 71 % 19.28 C
216 22-07-2021 17:55:00 24.9 C 71 % 19.28 C
217 22-07-2021 18:00:00 24.8 C 69 % 18.72 C
218 22-07-2021 18:05:00 24.7 C 59 % 16.15 C
219 22-07-2021 18:10:00 25.2 C 56 % 15.8 C
220 22-07-2021 18:15:00 25.7 C 57 % 16.54 C
221 22-07-2021 18:20:00 26.2 C 52 % 15.57 C
222 22-07-2021 18:25:00 26.6 C 52 % 15.94 C
223 22-07-2021 18:30:00 26.7 C 49 % 15.1 C
224 22-07-2021 18:35:00 26.7 C 51 % 15.72 C
225 22-07-2021 18:40:00 26.7 C 51 % 15.72 C
Sensor: Nr:Datum:Temp:Feuchte:Taupunkt:
Aussen-T/F 226 22-07-2021 18:45:00 26.7 C 52 % 16.03 C
227 22-07-2021 18:50:00 26.8 C 52 % 16.12 C
228 22-07-2021 18:55:00 26.8 C 48 % 14.87 C
229 22-07-2021 19:00:00 26.7 C 51 % 15.72 C
230 22-07-2021 19:05:00 26.7 C 54 % 16.62 C
231 22-07-2021 19:10:00 26.7 C 61 % 18.55 C
232 22-07-2021 19:15:00 26.6 C 60 % 18.2 C
233 22-07-2021 19:20:00 26.4 C 62 % 18.53 C
234 22-07-2021 19:25:00 26.2 C 64 % 18.85 C
235 22-07-2021 19:30:00 26 C 65 % 18.91 C
236 22-07-2021 19:35:00 25.7 C 64 % 18.38 C
237 22-07-2021 19:40:00 25.4 C 64 % 18.09 C
238 22-07-2021 19:45:00 25.2 C 65 % 18.15 C
239 22-07-2021 19:50:00 24.7 C 65 % 17.68 C
240 22-07-2021 19:55:00 24.4 C 67 % 17.87 C
241 22-07-2021 20:00:00 24.1 C 67 % 17.59 C
242 22-07-2021 20:05:00 23.7 C 68 % 17.44 C
243 22-07-2021 20:10:00 23.4 C 70 % 17.62 C
244 22-07-2021 20:15:00 23.1 C 70 % 17.33 C
245 22-07-2021 20:20:00 22.8 C 71 % 17.27 C
246 22-07-2021 20:25:00 22.5 C 71 % 16.98 C
247 22-07-2021 20:30:00 22.2 C 71 % 16.69 C
248 22-07-2021 20:35:00 21.9 C 72 % 16.62 C
249 22-07-2021 20:40:00 21.7 C 72 % 16.43 C
250 22-07-2021 20:45:00 21.4 C 72 % 16.14 C
Sensor: Nr:Datum:Temp:Feuchte:Taupunkt:
Aussen-T/F 251 22-07-2021 20:50:00 21.2 C 72 % 15.95 C
252 22-07-2021 20:55:00 21.1 C 74 % 16.29 C
253 22-07-2021 21:00:00 20.8 C 72 % 15.57 C
254 22-07-2021 21:05:00 20.6 C 74 % 15.8 C
255 22-07-2021 21:10:00 20.3 C 75 % 15.72 C
256 22-07-2021 21:15:00 20.1 C 75 % 15.53 C
257 22-07-2021 21:20:00 19.9 C 76 % 15.54 C
258 22-07-2021 21:25:00 19.6 C 76 % 15.26 C
259 22-07-2021 21:30:00 19.4 C 76 % 15.06 C
260 22-07-2021 21:35:00 19.3 C 78 % 15.37 C
261 22-07-2021 21:40:00 19.1 C 79 % 15.37 C
262 22-07-2021 21:45:00 18.8 C 80 % 15.28 C
263 22-07-2021 21:50:00 18.7 C 81 % 15.37 C
264 22-07-2021 21:55:00 18.4 C 81 % 15.08 C
265 22-07-2021 22:00:00 18.2 C 81 % 14.89 C
266 22-07-2021 22:05:00 18 C 82 % 14.88 C
267 22-07-2021 22:10:00 17.8 C 83 % 14.88 C
268 22-07-2021 22:15:00 17.7 C 84 % 14.96 C
269 22-07-2021 22:20:00 17.5 C 84 % 14.77 C
270 22-07-2021 22:25:00 17.3 C 84 % 14.57 C
271 22-07-2021 22:30:00 17.3 C 85 % 14.76 C
272 22-07-2021 22:35:00 17.1 C 85 % 14.56 C
273 22-07-2021 22:40:00 17 C 85 % 14.46 C
274 22-07-2021 22:45:00 16.9 C 86 % 14.54 C
275 22-07-2021 22:50:00 16.8 C 86 % 14.45 C
Sensor: Nr:Datum:Temp:Feuchte:Taupunkt:
Aussen-T/F 276 22-07-2021 22:55:00 16.7 C 86 % 14.35 C
277 22-07-2021 23:00:00 16.6 C 86 % 14.25 C
278 22-07-2021 23:05:00 16.6 C 87 % 14.43 C
279 22-07-2021 23:10:00 16.6 C 87 % 14.43 C
280 22-07-2021 23:15:00 16.5 C 87 % 14.33 C
281 22-07-2021 23:20:00 16.5 C 87 % 14.33 C
282 22-07-2021 23:25:00 16.5 C 88 % 14.51 C
283 22-07-2021 23:30:00 16.6 C 88 % 14.6 C
284 22-07-2021 23:35:00 16.6 C 88 % 14.6 C
285 22-07-2021 23:40:00 16.6 C 88 % 14.6 C
286 22-07-2021 23:45:00 16.7 C 88 % 14.7 C
287 22-07-2021 23:50:00 16.6 C 88 % 14.6 C
288 22-07-2021 23:55:00 16.6 C 88 % 14.6 C

Legende:
   Min
   Max


Maximal/Minimal-Werte vom 22.07.2021 - 22.07.2021

Sensor Min Max Avg
Temp
(Aussen-T/F)
12.7 °C
22-07-2021  04:15:00
27.1 °C
22-07-2021  17:00:00
18.83 °C
Feuchte
(Aussen-T/F)
48 %
22-07-2021  17:00:00
96 %
22-07-2021  06:20:00
78.49 %
Taupunkt
(Aussen-T/F)
11.7 C
22-07-2021  04:00:00
19.28 C
22-07-2021  17:50:00
14.55 C

Die Daten stammen von einer Davis Vantage Pro 2 Wetter-Station und werden unter Linux mit der Software wview2wettercgi und aufbereitet. Alle Angaben erfolgen ohne Gewähr für ihre Vollständigkeit oder Richtigkeit.
Kontakt: Rainer Krienke krienke@uni-koblenz.de . Meine Webseiten an der Uni Koblenz oder privat.
Version: $Revision: 0.78 $